Time;durP1;ratioP1;P1;durP2;ratioP2;P2;SDS_P1;SDS_P2;PMS_P1;PMS_P2;Temp;Humidity;BMP_temperature;BMP_pressure;BME280_temperature;BME280_humidity;BME280_pressure;Samples;Min_cycle;Max_cycle;Signal;HPM_P1;HPM_P2
2024/04/05 00:00:17;;;;;;;;;;;;;;;16.51;42.25;99805.00;5073140;28;19999;-80
2024/04/05 00:02:46;;;;;;;;;;;;;;;16.45;42.56;99807.69;5074198;28;20309;-82
2024/04/05 00:05:12;;;;;;;;;;;;;;;16.43;42.14;99801.75;5073199;28;19912;-82
2024/04/05 00:07:38;;;;;;;;;;;;;;;16.40;42.13;99802.16;5074420;28;19951;-82
2024/04/05 00:10:04;;;;;;;;;;;;;;;16.34;43.70;99801.13;5072967;28;19919;-83
2024/04/05 00:12:29;;;;;;;;;;;;;;;16.26;42.97;99798.69;5073238;28;19974;-81
2024/04/05 00:14:54;;;;;;;;;;;;;;;16.14;43.32;99803.00;5074094;28;20396;-81
2024/04/05 00:17:19;;;;;;;;;;;;;;;16.02;43.64;99796.69;5074407;28;19916;-81
2024/04/05 00:19:45;;;;;;;;;;;;;;;15.97;44.03;99797.31;5073904;28;19912;-80
2024/04/05 00:22:10;;;;;;;;;;;;;;;15.92;43.69;99799.75;5074502;28;20288;-82
2024/04/05 00:24:35;;;;;;;;;;;;;;;15.91;44.12;99803.44;5089359;28;19920;-82
2024/04/05 00:27:01;;;;;;;;;;;;;;;15.92;43.53;99798.94;5073749;28;19934;-82
2024/04/05 00:29:26;;;;;;;;;;;;;;;16.03;42.23;99801.81;5089372;28;19917;-82
2024/04/05 00:31:51;;;;;;;;;;;;;;;16.06;42.60;99797.91;5073808;28;20361;-82
2024/04/05 00:34:16;;;;;;;;;;;;;;;16.08;43.21;99793.19;5073625;28;19916;-82
2024/04/05 00:36:42;;;;;;;;;;;;;;;16.11;43.30;99798.09;5072179;28;19916;-82
2024/04/05 00:39:07;;;;;;;;;;;;;;;16.13;41.87;99798.72;5073456;28;19948;-80
2024/04/05 00:41:32;;;;;;;;;;;;;;;16.12;42.70;99800.56;5073468;28;19913;-82
2024/04/05 00:43:57;;;;;;;;;;;;;;;16.12;42.61;99789.91;5073542;28;19912;-82
2024/04/05 00:46:23;;;;;;;;;;;;;;;16.11;43.14;99790.94;5073512;28;19919;-82
2024/04/05 00:48:48;;;;;;;;;;;;;;;16.11;42.80;99792.78;5072280;28;19988;-82
2024/04/05 00:51:14;;;;;;;;;;;;;;;16.07;42.63;99794.22;5073413;28;19973;-81
2024/04/05 00:53:40;;;;;;;;;;;;;;;16.00;42.96;99790.75;5073400;28;20359;-82
2024/04/05 00:56:06;;;;;;;;;;;;;;;15.98;42.63;99796.28;5073161;28;20432;-82
2024/04/05 00:58:33;;;;;;;;;;;;;;;15.94;43.51;99797.72;5073277;28;20003;-82
2024/04/05 01:00:58;;;;;;;;;;;;;;;15.94;43.76;99800.38;5073146;28;19918;-82
2024/04/05 01:03:23;;;;;;;;;;;;;;;15.93;43.16;99796.06;5072907;28;20421;-82
2024/04/05 01:05:49;;;;;;;;;;;;;;;15.92;43.22;99807.75;5073162;28;19920;-81
2024/04/05 01:08:16;;;;;;;;;;;;;;;15.88;43.90;99810.00;5088728;28;19912;-83
2024/04/05 01:10:42;;;;;;;;;;;;;;;15.83;43.11;99803.66;5071785;28;20399;-81
2024/04/05 01:13:08;;;;;;;;;;;;;;;15.83;43.81;99814.31;5072873;28;19919;-82
2024/04/05 01:15:34;;;;;;;;;;;;;;;15.83;43.09;99816.97;5072315;28;19917;-82
2024/04/05 01:18:01;;;;;;;;;;;;;;;15.83;43.42;99817.78;5072624;28;19922;-82
2024/04/05 01:20:29;;;;;;;;;;;;;;;15.79;44.18;99813.09;5072606;28;19912;-82
2024/04/05 01:22:57;;;;;;;;;;;;;;;15.79;44.87;99818.41;5071448;28;19912;-81
2024/04/05 01:25:23;;;;;;;;;;;;;;;15.81;43.87;99819.84;5072959;28;19912;-81
2024/04/05 01:27:48;;;;;;;;;;;;;;;15.86;43.53;99827.22;5071415;28;19970;-81
2024/04/05 01:30:14;;;;;;;;;;;;;;;15.83;45.08;99816.97;5072971;28;19952;-82
2024/04/05 01:32:39;;;;;;;;;;;;;;;15.81;44.85;99821.69;5072597;28;20416;-81
2024/04/05 01:35:04;;;;;;;;;;;;;;;15.74;45.32;99815.53;5072749;28;19912;-82
2024/04/05 01:37:30;;;;;;;;;;;;;;;15.71;45.87;99824.75;5072461;28;19916;-82
2024/04/05 01:39:55;;;;;;;;;;;;;;;15.69;44.11;99818.81;5072345;28;20416;-81
2024/04/05 01:42:20;;;;;;;;;;;;;;;15.73;43.98;99811.25;5072284;28;19920;-82
2024/04/05 01:44:45;;;;;;;;;;;;;;;15.76;43.59;99818.81;5072407;28;20377;-81
2024/04/05 01:47:11;;;;;;;;;;;;;;;15.80;44.30;99820.88;5071090;28;19920;-82
2024/04/05 01:49:36;;;;;;;;;;;;;;;15.84;43.35;99824.75;5072104;28;19923;-82
2024/04/05 01:52:02;;;;;;;;;;;;;;;15.86;42.95;99816.56;5070782;28;19915;-82
2024/04/05 01:54:27;;;;;;;;;;;;;;;15.81;42.90;99809.19;5071100;28;19950;-81
2024/04/05 01:56:52;;;;;;;;;;;;;;;15.76;43.98;99814.31;5072076;28;19917;-82
2024/04/05 01:59:17;;;;;;;;;;;;;;;15.74;43.78;99818.19;5070803;28;19999;-82
2024/04/05 02:01:42;;;;;;;;;;;;;;;15.69;43.75;99812.69;5070660;28;19912;-82
2024/04/05 02:04:08;;;;;;;;;;;;;;;15.63;43.06;99824.13;5070506;28;20324;-81
2024/04/05 02:06:33;;;;;;;;;;;;;;;15.45;44.08;99819.34;5070569;28;19912;-81
2024/04/05 02:08:59;;;;;;;;;;;;;;;15.41;44.23;99818.94;5070637;28;19913;-82
2024/04/05 02:11:25;;;;;;;;;;;;;;;15.41;43.48;99823.44;5071861;28;20403;-82
2024/04/05 02:13:50;;;;;;;;;;;;;;;15.36;43.67;99833.88;5071896;28;19920;-81
2024/04/05 02:16:15;;;;;;;;;;;;;;;15.42;45.13;99830.41;5071895;28;19920;-82
2024/04/05 02:18:40;;;;;;;;;;;;;;;15.45;43.82;99832.66;5087474;28;19913;-81
2024/04/05 02:21:06;;;;;;;;;;;;;;;15.39;43.39;99834.28;5071644;28;20050;-82
2024/04/05 02:23:31;;;;;;;;;;;;;;;15.26;45.06;99840.41;5087344;28;19913;-82
2024/04/05 02:25:57;;;;;;;;;;;;;;;15.14;44.74;99844.66;5071899;28;19999;-82
2024/04/05 02:28:22;;;;;;;;;;;;;;;14.98;44.83;99847.69;5071212;28;19946;-82
2024/04/05 02:30:47;;;;;;;;;;;;;;;14.92;44.47;99845.81;5070474;28;19920;-82
2024/04/05 02:33:12;;;;;;;;;;;;;;;14.84;44.89;99840.63;5070471;28;19999;-83
2024/04/05 02:35:38;;;;;;;;;;;;;;;14.86;45.07;99842.13;5071812;28;20404;-82
2024/04/05 02:38:03;;;;;;;;;;;;;;;14.93;44.10;99847.47;5070438;28;19939;-82
2024/04/05 02:40:29;;;;;;;;;;;;;;;14.90;43.43;99850.50;5071709;28;19934;-82
2024/04/05 02:42:54;;;;;;;;;;;;;;;14.92;44.41;99851.13;5071738;28;19912;-82
2024/04/05 02:45:19;;;;;;;;;;;;;;;14.87;44.91;99851.72;5071661;28;20380;-82
2024/04/05 02:47:44;;;;;;;;;;;;;;;14.84;44.68;99856.59;5071678;28;19913;-81
2024/04/05 02:50:10;;;;;;;;;;;;;;;14.84;43.96;99860.06;5071397;28;19919;-81
2024/04/05 02:52:35;;;;;;;;;;;;;;;14.84;44.55;99856.59;5070139;28;19912;-81
2024/04/05 02:55:00;;;;;;;;;;;;;;;14.82;45.11;99850.66;5071652;28;19913;-82
2024/04/05 02:57:25;;;;;;;;;;;;;;;14.83;44.37;99854.94;5086879;28;19978;-81
2024/04/05 02:59:51;;;;;;;;;;;;;;;14.84;44.61;99852.09;5070260;28;19916;-82
2024/04/05 03:02:16;;;;;;;;;;;;;;;14.86;43.39;99849.25;5071431;28;19923;-82
2024/04/05 03:04:41;;;;;;;;;;;;;;;14.84;44.28;99854.75;5071549;28;20366;-82
2024/04/05 03:07:07;;;;;;;;;;;;;;;14.85;43.86;99853.72;5070106;28;19919;-82
2024/04/05 03:09:33;;;;;;;;;;;;;;;14.79;44.27;99849.22;5071362;28;19916;-82
2024/04/05 03:11:59;;;;;;;;;;;;;;;14.73;44.90;99857.97;5087031;28;19919;-82
2024/04/05 03:14:24;;;;;;;;;;;;;;;14.71;44.34;99853.88;5071399;28;19912;-82
2024/04/05 03:16:49;;;;;;;;;;;;;;;14.66;44.20;99862.44;5069800;28;19916;-82
2024/04/05 03:19:14;;;;;;;;;;;;;;;14.60;44.04;99861.38;5071256;28;20373;-82
2024/04/05 03:21:40;;;;;;;;;;;;;;;14.52;44.42;99874.84;5071278;28;19912;-82
2024/04/05 03:24:05;;;;;;;;;;;;;;;14.51;44.59;99869.72;5071390;28;19913;-82
2024/04/05 03:26:31;;;;;;;;;;;;;;;14.48;44.93;99875.41;5069752;28;20003;-82
2024/04/05 03:28:56;;;;;;;;;;;;;;;14.26;45.63;99874.63;5071267;28;19919;-82
2024/04/05 03:31:22;;;;;;;;;;;;;;;14.13;44.46;99878.00;5069968;28;20351;-82
2024/04/05 03:33:47;;;;;;;;;;;;;;;14.06;45.49;99882.41;5069882;28;20346;-82
2024/04/05 03:36:12;;;;;;;;;;;;;;;13.99;45.01;99878.88;5070971;28;19925;-82
2024/04/05 03:38:37;;;;;;;;;;;;;;;13.86;45.99;99884.91;5072810;28;20446;-82
2024/04/05 03:41:04;;;;;;;;;;;;;;;13.90;44.30;99888.00;5074798;28;19912;-82
2024/04/05 03:43:29;;;;;;;;;;;;;;;13.87;45.25;99886.56;5074889;28;19913;-82
2024/04/05 03:45:54;;;;;;;;;;;;;;;13.94;44.81;99894.56;5074780;28;19961;-82
2024/04/05 03:48:20;;;;;;;;;;;;;;;13.98;45.39;99899.31;5090128;28;19934;-82
2024/04/05 03:50:45;;;;;;;;;;;;;;;14.03;44.48;99906.69;5074632;28;19919;-82
2024/04/05 03:53:10;;;;;;;;;;;;;;;14.03;44.92;99909.34;5074635;28;20385;-82
2024/04/05 03:55:35;;;;;;;;;;;;;;;14.00;45.59;99915.88;5074509;28;19919;-82
2024/04/05 03:58:01;;;;;;;;;;;;;;;14.06;44.71;99914.28;5074440;28;19970;-82
2024/04/05 04:00:26;;;;;;;;;;;;;;;14.04;45.96;99916.31;5074378;28;19991;-82
2024/04/05 04:02:52;;;;;;;;;;;;;;;13.99;46.72;99919.53;5074105;28;20369;-82
2024/04/05 04:05:18;;;;;;;;;;;;;;;14.00;46.04;99920.34;5073113;28;19912;-82
2024/04/05 04:07:43;;;;;;;;;;;;;;;14.04;45.79;99923.44;5074339;28;19920;-82
2024/04/05 04:10:08;;;;;;;;;;;;;;;14.08;45.71;99932.66;5074372;28;19920;-82
2024/04/05 04:12:34;;;;;;;;;;;;;;;14.17;44.46;99934.22;5074047;28;20423;-82
2024/04/05 04:14:59;;;;;;;;;;;;;;;14.25;44.10;99926.94;5072875;28;19920;-82
2024/04/05 04:17:25;;;;;;;;;;;;;;;14.25;44.97;99934.06;5074327;28;19999;-82
2024/04/05 04:19:52;;;;;;;;;;;;;;;14.30;44.40;99926.34;5073922;28;19912;-82
2024/04/05 04:22:17;;;;;;;;;;;;;;;14.32;44.49;99934.94;5072618;28;19923;-82
2024/04/05 04:24:42;;;;;;;;;;;;;;;14.37;44.35;99935.19;5074054;28;19912;-82
2024/04/05 04:27:08;;;;;;;;;;;;;;;14.40;44.14;99942.78;5072669;28;19996;-82
2024/04/05 04:29:33;;;;;;;;;;;;;;;14.40;44.20;99939.28;5073882;28;19935;-82
2024/04/05 04:31:59;;;;;;;;;;;;;;;14.34;44.40;99943.53;5073878;28;20050;-82
2024/04/05 04:34:24;;;;;;;;;;;;;;;14.35;44.44;99949.69;5072403;28;20300;-82
2024/04/05 04:36:50;;;;;;;;;;;;;;;14.32;44.77;99953.53;5073428;28;19916;-82
2024/04/05 04:39:15;;;;;;;;;;;;;;;14.19;45.08;99950.78;5072248;28;19987;-82
2024/04/05 04:41:40;;;;;;;;;;;;;;;14.10;44.24;99955.38;5073475;28;19920;-82
2024/04/05 04:44:06;;;;;;;;;;;;;;;13.94;45.11;99961.75;5073482;28;19913;-82
2024/04/05 04:46:32;;;;;;;;;;;;;;;13.94;45.26;99960.94;5072100;28;20003;-82
2024/04/05 04:48:57;;;;;;;;;;;;;;;13.81;45.55;99961.63;5072162;28;19962;-82
2024/04/05 04:51:23;;;;;;;;;;;;;;;13.65;45.39;99964.53;5071436;28;20016;-82
2024/04/05 04:53:48;;;;;;;;;;;;;;;13.58;44.71;99960.97;5073360;28;19912;-82
2024/04/05 04:56:16;;;;;;;;;;;;;;;13.56;45.41;99961.16;5088777;28;19966;-82
2024/04/05 04:58:41;;;;;;;;;;;;;;;13.51;45.71;99963.53;5073229;28;19962;-82
2024/04/05 05:01:07;;;;;;;;;;;;;;;13.56;45.48;99962.97;5073033;28;20350;-82
2024/04/05 05:03:33;;;;;;;;;;;;;;;13.54;44.93;99957.88;5072875;28;20027;-82
2024/04/05 05:05:58;;;;;;;;;;;;;;;13.61;45.86;99960.59;5071486;28;20384;-82
2024/04/05 05:08:23;;;;;;;;;;;;;;;13.68;44.99;99964.97;5072909;28;19916;-82
2024/04/05 05:10:49;;;;;;;;;;;;;;;13.77;45.22;99962.19;5072900;28;20029;-82
2024/04/05 05:13:14;;;;;;;;;;;;;;;13.84;45.19;99965.72;5071526;28;20388;-82
2024/04/05 05:15:41;;;;;;;;;;;;;;;13.96;43.82;99961.56;5071565;28;19912;-82
2024/04/05 05:18:07;;;;;;;;;;;;;;;13.87;44.99;99957.41;5072756;28;19924;-82
2024/04/05 05:20:32;;;;;;;;;;;;;;;13.88;45.34;99967.00;5072973;28;19913;-82
2024/04/05 05:22:58;;;;;;;;;;;;;;;13.95;44.58;99963.41;5072753;28;19912;-82
2024/04/05 05:25:24;;;;;;;;;;;;;;;13.97;45.27;99965.88;5072583;28;19913;-83
2024/04/05 05:27:49;;;;;;;;;;;;;;;13.98;45.31;99956.88;5071372;28;20377;-82
2024/04/05 05:30:14;;;;;;;;;;;;;;;14.02;44.63;99959.97;5072460;28;19913;-82
2024/04/05 05:32:40;;;;;;;;;;;;;;;14.05;45.50;99959.59;5071059;28;19955;-81
2024/04/05 05:35:05;;;;;;;;;;;;;;;14.15;44.48;99955.66;5072189;28;19920;-82
2024/04/05 05:37:30;;;;;;;;;;;;;;;14.29;44.07;99957.41;5072026;28;19925;-82
2024/04/05 05:39:56;;;;;;;;;;;;;;;14.34;44.29;99948.84;5072293;28;19916;-82
2024/04/05 05:42:22;;;;;;;;;;;;;;;14.45;44.17;99955.50;5072402;28;19935;-82
2024/04/05 05:44:47;;;;;;;;;;;;;;;14.48;44.04;99949.81;5072403;28;20324;-82
2024/04/05 05:47:13;;;;;;;;;;;;;;;14.51;44.11;99955.56;5072388;28;19913;-82
2024/04/05 05:49:38;;;;;;;;;;;;;;;14.52;44.38;99951.88;5070675;28;19913;-82
2024/04/05 05:52:04;;;;;;;;;;;;;;;14.64;44.88;99960.16;5071426;28;20005;-82
2024/04/05 05:54:29;;;;;;;;;;;;;;;14.77;44.64;99956.75;5071942;28;19917;-82
2024/04/05 05:56:55;;;;;;;;;;;;;;;14.85;44.76;99968.06;5071709;28;19989;-82
2024/04/05 05:59:20;;;;;;;;;;;;;;;14.99;43.98;99958.34;5070588;28;19904;-82
2024/04/05 06:01:46;;;;;;;;;;;;;;;15.14;44.25;99959.03;5068640;28;20393;-82
2024/04/05 06:04:11;;;;;;;;;;;;;;;15.27;43.44;99961.75;5070296;28;19920;-82
2024/04/05 06:06:37;;;;;;;;;;;;;;;15.38;43.88;99962.19;5070529;28;19994;-82
2024/04/05 06:09:03;;;;;;;;;;;;;;;15.54;43.75;99962.66;5071767;28;19905;-82
2024/04/05 06:11:28;;;;;;;;;;;;;;;15.68;44.21;99966.25;5071115;28;19924;-82
2024/04/05 06:13:53;;;;;;;;;;;;;;;15.87;43.81;99967.31;5071639;28;19935;-82
2024/04/05 06:16:18;;;;;;;;;;;;;;;16.05;43.17;99977.38;5071582;28;19920;-82
2024/04/05 06:18:45;;;;;;;;;;;;;;;16.24;42.57;99973.91;5071761;28;20421;-82
2024/04/05 06:21:11;;;;;;;;;;;;;;;16.44;42.66;99976.63;5071847;28;19913;-82
2024/04/05 06:23:36;;;;;;;;;;;;;;;16.63;42.06;99985.63;5070470;28;20342;-82
2024/04/05 06:26:03;;;;;;;;;;;;;;;16.80;41.16;99989.53;5070924;28;20560;-82
2024/04/05 06:28:28;;;;;;;;;;;;;;;16.90;40.80;99983.78;5071832;28;19920;-81
2024/04/05 06:30:54;;;;;;;;;;;;;;;17.05;40.71;99981.69;5069905;28;19924;-82
2024/04/05 06:33:19;;;;;;;;;;;;;;;17.20;40.18;99984.94;5071409;28;19913;-81
2024/04/05 06:35:45;;;;;;;;;;;;;;;17.31;39.86;99991.50;5070218;28;20011;-82
2024/04/05 06:38:10;;;;;;;;;;;;;;;17.40;39.65;99995.56;5071401;28;19916;-82
2024/04/05 06:40:36;;;;;;;;;;;;;;;17.43;39.21;99979.13;5071425;28;19913;-82
2024/04/05 06:43:07;;;;;;;;;;;;;;;17.48;38.98;99995.31;5069752;28;19923;-81
2024/04/05 06:45:33;;;;;;;;;;;;;;;17.53;39.02;99989.34;5071224;28;19912;-82
2024/04/05 06:47:59;;;;;;;;;;;;;;;17.55;39.10;99988.09;5069771;28;19920;-82
2024/04/05 06:50:28;;;;;;;;;;;;;;;17.54;39.06;99989.13;5069609;28;20363;-81
2024/04/05 06:52:59;;;;;;;;;;;;;;;17.63;39.03;99989.72;5070923;28;19913;-82
2024/04/05 06:55:26;;;;;;;;;;;;;;;17.73;39.05;99996.25;5071021;28;19917;-82
2024/04/05 06:57:52;;;;;;;;;;;;;;;17.86;39.06;99992.72;5071044;28;19928;-82
2024/04/05 07:00:17;;;;;;;;;;;;;;;17.90;38.61;99991.25;5066161;28;19920;-82
2024/04/05 07:02:42;;;;;;;;;;;;;;;17.93;38.49;99998.84;5071155;28;20007;-81
2024/04/05 07:05:08;;;;;;;;;;;;;;;17.99;38.22;99999.84;5071218;28;19999;-81
2024/04/05 07:07:33;;;;;;;;;;;;;;;18.03;38.16;100001.88;5069616;28;20658;-82
2024/04/05 07:09:59;;;;;;;;;;;;;;;18.12;37.82;99998.94;5069822;28;19912;-82
2024/04/05 07:12:24;;;;;;;;;;;;;;;18.23;37.50;100007.06;5069848;28;19920;-82
2024/04/05 07:14:49;;;;;;;;;;;;;;;18.35;37.52;100008.03;5074641;28;19912;-82
2024/04/05 07:17:14;;;;;;;;;;;;;;;18.41;37.41;100006.31;5073326;28;19927;-83
2024/04/05 07:19:40;;;;;;;;;;;;;;;18.51;36.88;100014.69;5074936;28;20396;-82
2024/04/05 07:22:07;;;;;;;;;;;;;;;18.62;37.01;100013.22;5075069;28;19995;-83
2024/04/05 07:24:32;;;;;;;;;;;;;;;18.72;36.81;100005.50;5074905;28;20407;-82
2024/04/05 07:26:57;;;;;;;;;;;;;;;18.72;36.58;100010.84;5075019;28;19952;-82
2024/04/05 07:29:22;;;;;;;;;;;;;;;18.82;36.57;100016.53;5074877;28;19922;-82
2024/04/05 07:31:51;;;;;;;;;;;;;;;18.91;36.41;100015.22;5074689;28;19913;-83
2024/04/05 07:34:16;;;;;;;;;;;;;;;19.03;36.61;100018.78;5074690;28;19913;-83
2024/04/05 07:36:41;;;;;;;;;;;;;;;19.16;36.25;100008.97;5073015;28;19916;-81
2024/04/05 07:39:08;;;;;;;;;;;;;;;19.21;35.84;100014.47;5073196;28;19930;-83
2024/04/05 07:41:34;;;;;;;;;;;;;;;19.31;36.22;100018.28;5075024;28;20339;-83
2024/04/05 07:44:00;;;;;;;;;;;;;;;19.43;35.87;100025.59;5074452;28;19919;-83
2024/04/05 07:46:25;;;;;;;;;;;;;;;19.53;35.89;100021.38;5057795;28;20029;-82
2024/04/05 07:48:51;;;;;;;;;;;;;;;19.61;35.88;100014.91;5072639;28;19936;-83
2024/04/05 07:51:16;;;;;;;;;;;;;;;19.74;34.86;100024.63;5072329;28;20380;-82
2024/04/05 07:53:41;;;;;;;;;;;;;;;19.84;35.49;100015.00;5072741;28;19913;-82
2024/04/05 07:56:07;;;;;;;;;;;;;;;19.97;35.64;100024.72;5074202;28;20483;-83
2024/04/05 07:58:32;;;;;;;;;;;;;;;20.09;34.92;100025.59;5074402;28;20304;-83
2024/04/05 08:00:57;;;;;;;;;;;;;;;20.17;35.24;100025.28;5072683;28;19915;-82
2024/04/05 08:03:23;;;;;;;;;;;;;;;20.24;34.97;100025.19;5073781;28;20392;-82
2024/04/05 08:05:48;;;;;;;;;;;;;;;20.29;35.08;100023.44;5074165;28;19917;-82
2024/04/05 08:08:14;;;;;;;;;;;;;;;20.46;34.87;100026.31;5074047;28;19912;-80
2024/04/05 08:10:39;;;;;;;;;;;;;;;20.65;34.94;100019.00;5073847;28;19983;-81
2024/04/05 08:13:04;;;;;;;;;;;;;;;20.74;34.75;100019.47;5072711;28;19912;-81
2024/04/05 08:15:30;;;;;;;;;;;;;;;20.74;34.87;100027.50;5071371;28;20357;-81
2024/04/05 08:17:55;;;;;;;;;;;;;;;20.72;34.47;100027.75;5071622;28;19924;-82
2024/04/05 08:20:21;;;;;;;;;;;;;;;20.70;34.55;100024.47;5071993;28;20380;-82
2024/04/05 08:22:46;;;;;;;;;;;;;;;20.68;34.32;100040.00;5072368;28;19993;-81
2024/04/05 08:25:11;;;;;;;;;;;;;;;20.65;34.35;100035.09;5071065;28;19919;-82
2024/04/05 08:27:37;;;;;;;;;;;;;;;20.64;33.38;100038.81;5070228;28;19923;-82
2024/04/05 08:30:02;;;;;;;;;;;;;;;20.68;33.70;100029.25;5070260;28;19920;-82
2024/04/05 08:32:28;;;;;;;;;;;;;;;20.79;33.91;100028.44;5068191;28;20414;-81
2024/04/05 08:34:53;;;;;;;;;;;;;;;20.91;33.26;100036.53;5072228;28;19920;-81
2024/04/05 08:37:18;;;;;;;;;;;;;;;21.11;33.71;100039.66;5069851;28;20262;-81
2024/04/05 08:39:44;;;;;;;;;;;;;;;21.29;33.05;100028.00;5073549;28;19917;-82
2024/04/05 08:42:16;;;;;;;;;;;;;;;21.46;33.15;100030.78;5073383;28;19912;-82
2024/04/05 08:44:46;;;;;;;;;;;;;;;21.73;32.80;100023.00;5073188;28;19912;-82
2024/04/05 08:47:11;;;;;;;;;;;;;;;21.90;32.58;100018.50;5071732;28;19919;-82
2024/04/05 08:49:37;;;;;;;;;;;;;;;22.03;32.06;100028.19;5072711;28;19917;-80
2024/04/05 08:52:03;;;;;;;;;;;;;;;22.08;31.54;100022.88;5071759;28;19912;-82
2024/04/05 08:54:28;;;;;;;;;;;;;;;22.08;32.15;100026.41;5071693;28;19912;-81
2024/04/05 08:56:54;;;;;;;;;;;;;;;21.89;31.63;100036.50;5072299;28;19924;-80
2024/04/05 08:59:20;;;;;;;;;;;;;;;21.82;32.07;100024.25;5072921;28;19913;-82
2024/04/05 09:01:46;;;;;;;;;;;;;;;21.71;31.58;100023.25;5071140;28;19963;-82
2024/04/05 09:04:12;;;;;;;;;;;;;;;21.72;31.92;100019.50;5072103;28;19920;-83
2024/04/05 09:06:38;;;;;;;;;;;;;;;21.91;31.74;100008.56;5072335;28;19920;-81
2024/04/05 09:09:04;;;;;;;;;;;;;;;22.14;31.63;100017.34;5069029;28;19981;-80
2024/04/05 09:11:29;;;;;;;;;;;;;;;22.39;30.79;100008.13;5072660;28;20372;-81
2024/04/05 09:13:58;;;;;;;;;;;;;;;22.43;31.49;100011.97;5071572;28;20382;-81
2024/04/05 09:16:25;;;;;;;;;;;;;;;22.37;31.32;100011.06;5072698;28;19927;-80
2024/04/05 09:18:50;;;;;;;;;;;;;;;22.31;31.50;100008.53;5072569;28;20357;-81
2024/04/05 09:21:17;;;;;;;;;;;;;;;22.21;31.57;100014.50;5071612;28;20011;-80
2024/04/05 09:23:46;;;;;;;;;;;;;;;22.36;31.58;100011.31;5070882;28;19916;-81
2024/04/05 09:26:18;;;;;;;;;;;;;;;22.39;30.59;100010.81;5070904;28;19912;-81
2024/04/05 09:28:43;;;;;;;;;;;;;;;22.39;30.40;100014.31;5070948;28;19909;-81
2024/04/05 09:31:09;;;;;;;;;;;;;;;22.33;31.41;100017.97;5071082;28;20317;-81
2024/04/05 09:33:34;;;;;;;;;;;;;;;22.30;31.49;100017.66;5071493;28;19924;-82
2024/04/05 09:36:00;;;;;;;;;;;;;;;22.34;31.23;100016.09;5070508;28;19913;-80
2024/04/05 09:38:25;;;;;;;;;;;;;;;22.43;31.49;100020.03;5070673;28;19917;-82
2024/04/05 09:40:52;;;;;;;;;;;;;;;22.65;31.15;100012.03;5072263;28;19916;-82
2024/04/05 09:43:19;;;;;;;;;;;;;;;22.77;30.71;100015.44;5072241;28;20388;-81
2024/04/05 09:45:47;;;;;;;;;;;;;;;23.03;30.00;100025.56;5087271;28;19913;-82
2024/04/05 09:48:12;;;;;;;;;;;;;;;23.38;30.13;100017.16;5062246;28;20320;-82
2024/04/05 09:50:39;;;;;;;;;;;;;;;23.68;29.99;100005.16;5063960;28;19916;-81
2024/04/05 09:53:04;;;;;;;;;;;;;;;24.00;29.18;100011.44;5057104;28;19920;-82
2024/04/05 09:55:35;;;;;;;;;;;;;;;24.09;28.97;100009.09;5070462;28;19920;-79
2024/04/05 09:58:00;;;;;;;;;;;;;;;24.24;27.79;100000.34;5065765;28;20011;-81
2024/04/05 10:00:27;;;;;;;;;;;;;;;24.29;28.41;100014.72;5071290;28;20003;-81
2024/04/05 10:02:53;;;;;;;;;;;;;;;24.31;28.91;100011.75;5063806;28;19974;-81
2024/04/05 10:05:25;;;;;;;;;;;;;;;24.39;28.09;100006.72;5071775;28;20345;-80
2024/04/05 10:07:51;;;;;;;;;;;;;;;24.72;27.51;100004.81;5068570;28;20297;-81
2024/04/05 10:10:16;;;;;;;;;;;;;;;24.95;26.08;100009.84;5069451;28;19999;-81
2024/04/05 10:12:42;;;;;;;;;;;;;;;24.80;26.77;100014.31;5067379;28;19966;-80
2024/04/05 10:15:09;;;;;;;;;;;;;;;24.78;27.20;100016.47;5069904;28;19927;-81
2024/04/05 10:17:34;;;;;;;;;;;;;;;24.68;27.70;100009.94;5067855;28;19975;-80
2024/04/05 10:20:05;;;;;;;;;;;;;;;24.84;27.47;100001.94;5068003;28;20365;-81
2024/04/05 10:22:31;;;;;;;;;;;;;;;24.99;27.40;100019.06;5068158;28;19951;-81
2024/04/05 10:24:56;;;;;;;;;;;;;;;24.92;26.91;100009.53;5069848;28;20070;-81
2024/04/05 10:27:25;;;;;;;;;;;;;;;24.76;27.24;100010.53;5071342;28;19912;-81
2024/04/05 10:29:58;;;;;;;;;;;;;;;24.52;26.87;100007.34;5071417;28;19913;-83
2024/04/05 10:32:24;;;;;;;;;;;;;;;24.39;26.89;100011.28;5069570;28;19916;-81
2024/04/05 10:34:49;;;;;;;;;;;;;;;24.29;27.58;100008.50;5068148;28;19923;-82
2024/04/05 10:37:16;;;;;;;;;;;;;;;24.21;27.70;100003.53;5064270;28;19940;-81
2024/04/05 10:39:41;;;;;;;;;;;;;;;24.05;27.45;99997.19;5069965;28;19923;-80
2024/04/05 10:42:07;;;;;;;;;;;;;;;24.08;28.20;99992.09;5070078;28;19920;-81
2024/04/05 10:44:33;;;;;;;;;;;;;;;24.13;27.70;99983.25;5068944;28;20046;-81
2024/04/05 10:46:59;;;;;;;;;;;;;;;24.22;28.00;99999.78;5069658;28;19931;-82
2024/04/05 10:49:25;;;;;;;;;;;;;;;24.29;28.05;99987.72;5074666;28;19909;-82
2024/04/05 10:51:57;;;;;;;;;;;;;;;24.45;27.79;99993.25;5075433;28;19916;-81
2024/04/05 10:54:22;;;;;;;;;;;;;;;24.48;27.31;99980.06;5075531;28;19916;-82
2024/04/05 10:56:47;;;;;;;;;;;;;;;24.42;27.53;99982.97;5073271;28;19920;-82
2024/04/05 10:59:14;;;;;;;;;;;;;;;24.23;28.09;99977.13;5073805;28;19912;-81
2024/04/05 11:01:40;;;;;;;;;;;;;;;24.16;27.86;99981.91;5072125;28;19967;-82
2024/04/05 11:04:06;;;;;;;;;;;;;;;24.06;27.87;99974.53;5074575;28;19947;-82
2024/04/05 11:06:32;;;;;;;;;;;;;;;24.00;28.05;99968.28;5073444;28;19928;-82
2024/04/05 11:08:58;;;;;;;;;;;;;;;23.99;27.42;99960.44;5074101;28;19926;-82
2024/04/05 11:11:23;;;;;;;;;;;;;;;23.94;27.48;99979.28;5069864;28;19927;-81
2024/04/05 11:13:48;;;;;;;;;;;;;;;23.80;28.08;99976.19;5059627;28;21184;-83
2024/04/05 11:16:17;;;;;;;;;;;;;;;23.80;27.80;99975.38;5063663;28;19924;-81
2024/04/05 11:18:42;;;;;;;;;;;;;;;23.77;27.84;99976.66;5065337;28;19917;-80
2024/04/05 11:21:15;;;;;;;;;;;;;;;23.76;27.50;99978.53;5074102;28;20435;-82
2024/04/05 11:23:51;;;;;;;;;;;;;;;23.87;27.81;99967.88;5074921;28;19920;-82
2024/04/05 11:26:30;;;;;;;;;;;;;;;23.90;28.08;99975.47;5074938;28;19912;-82
2024/04/05 11:28:55;;;;;;;;;;;;;;;23.93;27.53;99969.56;5068203;28;19916;-81
2024/04/05 11:31:24;;;;;;;;;;;;;;;23.99;27.24;99965.84;5072878;28;19924;-81
2024/04/05 11:33:49;;;;;;;;;;;;;;;24.07;27.75;99966.19;5074313;28;19919;-81
2024/04/05 11:36:16;;;;;;;;;;;;;;;24.28;27.16;99969.09;5074348;28;20340;-81
2024/04/05 11:38:42;;;;;;;;;;;;;;;24.37;27.47;99962.97;5073282;28;20313;-81
2024/04/05 11:41:08;;;;;;;;;;;;;;;24.50;26.98;99956.31;5073104;28;19934;-80
2024/04/05 11:43:33;;;;;;;;;;;;;;;24.59;26.97;99973.69;5074390;28;19912;-82
2024/04/05 11:45:58;;;;;;;;;;;;;;;24.49;27.48;99961.97;5073072;28;19913;-81
2024/04/05 11:48:24;;;;;;;;;;;;;;;24.30;27.14;99964.25;5074393;28;19913;-82
2024/04/05 11:50:50;;;;;;;;;;;;;;;24.05;27.84;99962.94;5072921;28;19920;-81
2024/04/05 11:53:15;;;;;;;;;;;;;;;23.92;28.07;99954.44;5072893;28;19919;-82
2024/04/05 11:55:41;;;;;;;;;;;;;;;24.12;28.07;99954.63;5072719;28;19995;-82
2024/04/05 11:58:06;;;;;;;;;;;;;;;24.35;27.41;99957.00;5074145;28;20404;-82
2024/04/05 12:00:31;;;;;;;;;;;;;;;24.45;27.45;99953.56;5071982;28;19966;-81
2024/04/05 12:02:57;;;;;;;;;;;;;;;24.48;27.22;99953.06;5079779;28;19975;-81
2024/04/05 12:05:22;;;;;;;;;;;;;;;24.66;27.38;99943.75;5070764;28;20313;-81
2024/04/05 12:07:50;;;;;;;;;;;;;;;24.88;26.76;99949.00;5072735;28;21733;-81
2024/04/05 12:10:16;;;;;;;;;;;;;;;25.16;26.36;99940.53;5072465;28;19920;-81
2024/04/05 12:12:41;;;;;;;;;;;;;;;25.32;26.62;99934.13;5073559;28;20323;-81
2024/04/05 12:15:07;;;;;;;;;;;;;;;25.39;25.90;99933.88;5073245;28;19995;-81
2024/04/05 12:17:34;;;;;;;;;;;;;;;25.53;26.37;99928.78;5073602;28;19950;-81
2024/04/05 12:20:00;;;;;;;;;;;;;;;25.59;25.79;99933.13;5072475;28;19934;-81
2024/04/05 12:22:25;;;;;;;;;;;;;;;25.68;24.94;99933.44;5073629;28;19916;-81
2024/04/05 12:24:50;;;;;;;;;;;;;;;25.62;25.76;99917.16;5084272;28;19926;-81
2024/04/05 12:27:16;;;;;;;;;;;;;;;25.75;25.68;99923.97;5062034;28;19917;-82
2024/04/05 12:29:45;;;;;;;;;;;;;;;25.94;25.49;99916.97;5065357;28;20369;-81
2024/04/05 12:32:10;;;;;;;;;;;;;;;25.92;25.53;99904.78;5073257;28;19954;-80
2024/04/05 12:34:35;;;;;;;;;;;;;;;25.96;25.84;99901.28;5073180;28;19959;-80